createdAt,value
2018-03-15T00:00:47.118Z,100946.27
2018-03-15T00:03:20.982Z,100946.19
2018-03-15T00:05:49.325Z,100942.37
2018-03-15T00:08:17.650Z,100943.18
2018-03-15T00:10:45.997Z,100937.89
2018-03-15T00:13:14.355Z,100933.88
2018-03-15T00:15:42.680Z,100933.71
2018-03-15T00:18:11.022Z,100935.72
2018-03-15T00:20:39.873Z,100933.97
2018-03-15T00:23:08.183Z,100924.05
2018-03-15T00:25:36.529Z,100927.75
2018-03-15T00:28:04.854Z,100932.57
2018-03-15T00:30:33.945Z,100931.50
2018-03-15T00:33:02.268Z,100930.59
2018-03-15T00:35:30.610Z,100932.14
2018-03-15T00:37:58.905Z,100933.91
2018-03-15T00:40:27.254Z,100934.91
2018-03-15T00:42:55.867Z,100942.30
2018-03-15T00:45:24.192Z,100938.49
2018-03-15T00:47:53.316Z,100933.43
2018-03-15T00:50:21.651Z,100931.63
2018-03-15T00:52:49.964Z,100932.41
2018-03-15T00:55:18.292Z,100929.82
2018-03-15T00:57:46.615Z,100934.34
2018-03-15T01:00:15.706Z,100934.30
2018-03-15T01:02:44.805Z,100926.80
2018-03-15T01:05:14.423Z,100927.94
2018-03-15T01:07:42.741Z,100929.68
2018-03-15T01:10:11.063Z,100930.42
2018-03-15T01:12:40.191Z,100927.77
2018-03-15T01:15:08.559Z,100926.42
2018-03-15T01:17:36.876Z,100926.38
2018-03-15T01:20:05.211Z,100925.94
2018-03-15T01:22:33.559Z,100922.47
2018-03-15T01:25:01.899Z,100920.11
2018-03-15T01:27:30.314Z,100930.42
2018-03-15T01:29:58.628Z,100922.66
2018-03-15T01:32:26.966Z,100910.57
2018-03-15T01:34:55.320Z,100908.38
2018-03-15T01:37:23.623Z,100899.45
2018-03-15T01:39:51.957Z,100898.03
2018-03-15T01:42:20.325Z,100894.25
2018-03-15T01:44:48.660Z,100891.59
2018-03-15T01:47:16.977Z,100889.27
2018-03-15T01:49:45.434Z,100889.95
2018-03-15T01:52:13.757Z,100874.64
2018-03-15T01:54:42.139Z,100885.66
2018-03-15T01:57:10.480Z,100889.09
2018-03-15T01:59:38.788Z,100890.75
2018-03-15T02:02:07.099Z,100893.12
2018-03-15T02:04:35.450Z,100886.52
2018-03-15T02:07:03.751Z,100893.98
2018-03-15T02:09:32.049Z,100891.33
2018-03-15T02:12:00.839Z,100883.97
2018-03-15T02:14:29.108Z,100880.50
2018-03-15T02:16:57.413Z,100877.80
2018-03-15T02:19:26.528Z,100867.20
2018-03-15T02:21:54.839Z,100861.98
2018-03-15T02:24:23.170Z,100867.23
2018-03-15T02:26:51.555Z,100864.85
2018-03-15T02:29:19.870Z,100857.00
2018-03-15T02:31:48.187Z,100851.98
2018-03-15T02:34:16.985Z,100859.80
2018-03-15T02:36:45.308Z,100850.69
2018-03-15T02:39:13.666Z,100847.66
2018-03-15T02:41:42.002Z,100839.52
2018-03-15T02:44:10.317Z,100846.22
2018-03-15T02:46:38.629Z,100838.35
2018-03-15T02:49:07.007Z,100831.85
2018-03-15T02:51:35.319Z,100837.51
2018-03-15T02:54:03.621Z,100836.39
2018-03-15T02:56:32.801Z,100834.45
2018-03-15T02:59:01.087Z,100835.38
2018-03-15T03:01:29.403Z,100836.81
2018-03-15T03:03:57.706Z,100839.45
2018-03-15T03:06:26.041Z,100843.59
2018-03-15T03:08:54.329Z,100834.27
2018-03-15T03:11:22.674Z,100829.59
2018-03-15T03:13:51.011Z,100822.70
2018-03-15T03:16:19.329Z,100826.72
2018-03-15T03:18:48.941Z,100828.24
2018-03-15T03:21:17.249Z,100831.96
2018-03-15T03:23:45.540Z,100825.14
2018-03-15T03:26:13.903Z,100825.56
2018-03-15T03:28:42.211Z,100818.05
2018-03-15T03:31:10.502Z,100817.00
2018-03-15T03:33:38.882Z,100807.72
2018-03-15T03:36:08.256Z,100807.39
2018-03-15T03:38:36.589Z,100811.19
2018-03-15T03:41:06.073Z,100808.22
2018-03-15T03:43:34.383Z,100808.09
2018-03-15T03:46:02.686Z,100807.31
2018-03-15T03:48:31.018Z,100805.85
2018-03-15T03:50:59.326Z,100803.27
2018-03-15T03:53:27.628Z,100801.70
2018-03-15T03:55:55.978Z,100799.79
2018-03-15T03:58:24.279Z,100798.67
2018-03-15T04:00:52.580Z,100799.28
2018-03-15T04:03:21.217Z,100801.45
2018-03-15T04:05:50.273Z,100802.11
2018-03-15T04:08:18.585Z,100809.06
2018-03-15T04:10:46.905Z,100809.72
2018-03-15T04:13:15.200Z,100803.14
2018-03-15T04:15:43.558Z,100803.50
2018-03-15T04:18:11.857Z,100793.87
2018-03-15T04:20:40.175Z,100806.20
2018-03-15T04:23:08.504Z,100813.58
2018-03-15T04:25:37.672Z,100819.05
2018-03-15T04:28:05.987Z,100816.01
2018-03-15T04:30:34.296Z,100807.93
2018-03-15T04:33:02.645Z,100815.52
2018-03-15T04:35:30.933Z,100808.56
2018-03-15T04:37:59.267Z,100810.39
2018-03-15T04:40:27.620Z,100801.78
2018-03-15T04:42:55.990Z,100803.09
2018-03-15T04:45:25.050Z,100803.32
2018-03-15T04:47:53.455Z,100806.54
2018-03-15T04:50:21.758Z,100800.55
2018-03-15T04:52:50.836Z,100810.06
2018-03-15T04:55:19.931Z,100805.69
2018-03-15T04:57:49.003Z,100811.36
2018-03-15T05:00:17.337Z,100815.17
2018-03-15T05:02:45.676Z,100812.68
2018-03-15T05:05:13.996Z,100813.34
2018-03-15T05:07:42.331Z,100811.16
2018-03-15T05:10:11.026Z,100807.89
2018-03-15T05:12:40.123Z,100804.86
2018-03-15T05:15:08.435Z,100807.69
2018-03-15T05:17:36.768Z,100810.23
2018-03-15T05:20:05.063Z,100813.91
2018-03-15T05:22:34.150Z,100815.47
2018-03-15T05:25:02.483Z,100818.64
2018-03-15T05:27:30.832Z,100811.84
2018-03-15T05:29:59.168Z,100816.89
2018-03-15T05:32:27.560Z,100816.38
2018-03-15T05:34:55.865Z,100808.03
2018-03-15T05:37:24.201Z,100808.07
2018-03-15T05:39:52.547Z,100804.92
2018-03-15T05:42:20.860Z,100802.50
2018-03-15T05:44:49.246Z,100800.15
2018-03-15T05:47:17.624Z,100812.05
2018-03-15T05:49:45.929Z,100808.12
2018-03-15T05:52:14.239Z,100799.39
2018-03-15T05:54:43.074Z,100804.25
2018-03-15T05:57:11.387Z,100801.47
2018-03-15T05:59:39.706Z,100801.55
2018-03-15T06:02:08.069Z,100802.66
2018-03-15T06:04:36.390Z,100807.64
2018-03-15T06:07:04.716Z,100796.48
2018-03-15T06:09:33.037Z,100803.13
2018-03-15T06:12:01.352Z,100806.12
2018-03-15T06:14:29.673Z,100796.75
2018-03-15T06:16:58.374Z,100803.36
2018-03-15T06:19:26.668Z,100798.46
2018-03-15T06:21:54.974Z,100803.34
2018-03-15T06:24:23.301Z,100812.46
2018-03-15T06:26:52.377Z,100804.75
2018-03-15T06:29:20.695Z,100819.98
2018-03-15T06:31:49.069Z,100804.45
2018-03-15T06:34:17.421Z,100811.30
2018-03-15T06:36:45.756Z,100804.03
2018-03-15T06:39:14.300Z,100802.27
2018-03-15T06:41:42.620Z,100799.20
2018-03-15T06:44:10.967Z,100801.43
2018-03-15T06:46:39.419Z,100803.30
2018-03-15T06:49:08.552Z,100800.45
2018-03-15T06:51:37.659Z,100793.14
2018-03-15T06:54:06.798Z,100788.17
2018-03-15T06:56:35.090Z,100790.48
2018-03-15T06:59:03.409Z,100790.50
2018-03-15T07:01:32.616Z,100788.76
2018-03-15T07:04:01.703Z,100792.20
2018-03-15T07:06:30.867Z,100795.02
2018-03-15T07:08:59.232Z,100778.12
2018-03-15T07:11:27.598Z,100777.30
2018-03-15T07:13:55.917Z,100778.59
2018-03-15T07:16:24.261Z,100775.52
2018-03-15T07:18:52.573Z,100771.77
2018-03-15T07:21:20.907Z,100764.62
2018-03-15T07:23:49.634Z,100768.34
2018-03-15T07:26:17.956Z,100764.39
2018-03-15T07:28:46.273Z,100753.07
2018-03-15T07:31:15.105Z,100755.84
2018-03-15T07:33:43.437Z,100749.37
2018-03-15T07:36:11.754Z,100750.05
2018-03-15T07:38:40.102Z,100743.75
2018-03-15T07:41:08.412Z,100743.51
2018-03-15T07:43:36.715Z,100742.76
2018-03-15T07:46:05.365Z,100739.59
2018-03-15T07:48:33.672Z,100736.16
2018-03-15T07:51:02.783Z,100727.88
2018-03-15T07:53:31.157Z,100734.61
2018-03-15T07:55:59.477Z,100711.97
2018-03-15T07:58:27.820Z,100710.42
2018-03-15T08:00:56.183Z,100731.10
2018-03-15T08:03:25.282Z,100732.09
2018-03-15T08:05:54.385Z,100735.80
2018-03-15T08:08:22.973Z,100733.06
2018-03-15T08:10:51.301Z,100720.88
2018-03-15T08:13:19.618Z,100732.34
2018-03-15T08:15:47.964Z,100746.50
2018-03-15T08:18:16.337Z,100738.72
2018-03-15T08:20:44.646Z,100745.39
2018-03-15T08:23:13.750Z,100729.43
2018-03-15T08:25:42.085Z,100723.05
2018-03-15T08:28:10.401Z,100738.37
2018-03-15T08:30:39.145Z,100730.56
2018-03-15T08:33:08.274Z,100733.61
2018-03-15T08:35:37.389Z,100723.78
2018-03-15T08:38:05.747Z,100727.56
2018-03-15T08:40:34.136Z,100723.90
2018-03-15T08:43:03.214Z,100724.61
2018-03-15T08:45:31.534Z,100721.95
2018-03-15T08:47:59.985Z,100725.00
2018-03-15T08:50:29.094Z,100716.61
2018-03-15T08:52:58.478Z,100715.00
2018-03-15T08:55:26.812Z,100713.39
2018-03-15T08:57:55.163Z,100716.11
2018-03-15T09:00:23.498Z,100710.33
2018-03-15T09:02:51.824Z,100710.12
2018-03-15T09:05:20.944Z,100706.86
2018-03-15T09:07:49.357Z,100708.78
2018-03-15T09:10:17.720Z,100706.30
2018-03-15T09:12:46.045Z,100697.34
2018-03-15T09:15:15.448Z,100698.92
2018-03-15T09:17:43.789Z,100689.80
2018-03-15T09:20:12.097Z,100692.39
2018-03-15T09:22:41.230Z,100692.27
2018-03-15T09:25:09.579Z,100678.09
2018-03-15T09:27:38.686Z,100667.86
2018-03-15T09:30:07.052Z,100670.35
2018-03-15T09:32:35.437Z,100665.08
2018-03-15T09:35:03.771Z,100665.50
2018-03-15T09:37:32.430Z,100655.13
2018-03-15T09:40:01.581Z,100666.45
2018-03-15T09:42:30.826Z,100672.22
2018-03-15T09:44:59.231Z,100683.66
2018-03-15T09:47:27.588Z,100677.82
2018-03-15T09:49:55.928Z,100674.73
2018-03-15T09:52:24.297Z,100662.97
2018-03-15T09:54:53.396Z,100676.05
2018-03-15T09:57:21.741Z,100680.29
2018-03-15T09:59:51.063Z,100668.83
2018-03-15T10:02:20.149Z,100672.73
2018-03-15T10:04:48.486Z,100664.93
2018-03-15T10:07:16.858Z,100662.58
2018-03-15T10:09:45.268Z,100661.23
2018-03-15T10:12:13.589Z,100652.11
2018-03-15T10:14:41.965Z,100656.92
2018-03-15T10:17:10.304Z,100655.94
2018-03-15T10:19:38.670Z,100659.32
2018-03-15T10:22:07.202Z,100649.77
2018-03-15T10:24:35.544Z,100656.22
2018-03-15T10:27:03.887Z,100656.07
2018-03-15T10:29:32.230Z,100666.45
2018-03-15T10:32:01.352Z,100662.20
2018-03-15T10:34:29.700Z,100677.99
2018-03-15T10:36:58.070Z,100658.07
2018-03-15T10:39:26.524Z,100655.55
2018-03-15T10:41:54.847Z,100653.02
2018-03-15T10:44:24.222Z,100651.17
2018-03-15T10:46:52.543Z,100649.34
2018-03-15T10:49:20.901Z,100647.94
2018-03-15T10:51:50.079Z,100653.25
2018-03-15T10:54:18.403Z,100654.41
2018-03-15T10:56:46.744Z,100651.66
2018-03-15T10:59:15.133Z,100652.71
2018-03-15T11:01:48.890Z,100648.52
2018-03-15T11:04:17.689Z,100653.50
2018-03-15T11:06:51.453Z,100652.44
2018-03-15T11:09:36.496Z,100650.66
2018-03-15T11:12:04.846Z,100650.13
2018-03-15T11:14:33.189Z,100646.95
2018-03-15T11:17:01.562Z,100641.41
2018-03-15T11:19:29.891Z,100635.55
2018-03-15T11:21:58.222Z,100639.78
2018-03-15T11:24:26.992Z,100639.25
2018-03-15T11:26:55.348Z,100641.22
2018-03-15T11:29:23.686Z,100636.03
2018-03-15T11:31:52.071Z,100638.41
2018-03-15T11:34:20.400Z,100633.89
2018-03-15T11:36:49.536Z,100628.25
2018-03-15T11:39:17.920Z,100627.51
2018-03-15T11:41:46.258Z,100636.39
2018-03-15T11:44:15.392Z,100626.74
2018-03-15T11:46:44.170Z,100617.31
2018-03-15T11:49:12.548Z,100609.14
2018-03-15T11:51:40.887Z,100620.96
2018-03-15T11:54:09.316Z,100605.59
2018-03-15T11:56:37.657Z,100608.34
2018-03-15T11:59:06.742Z,100600.14
2018-03-15T12:01:35.161Z,100604.14
2018-03-15T12:04:04.253Z,100604.28
2018-03-15T12:06:32.680Z,100596.78
2018-03-15T12:09:01.158Z,100599.81
2018-03-15T12:11:29.501Z,100595.74
2018-03-15T12:13:57.875Z,100587.05
2018-03-15T12:16:26.248Z,100584.78
2018-03-15T12:18:55.349Z,100589.53
2018-03-15T12:21:24.587Z,100576.86
2018-03-15T12:23:53.000Z,100583.09
2018-03-15T12:26:21.321Z,100569.50
2018-03-15T12:28:49.619Z,100570.98
2018-03-15T12:31:19.042Z,100568.21
2018-03-15T12:33:47.512Z,100558.58
2018-03-15T12:36:15.840Z,100566.05
2018-03-15T12:38:44.252Z,100551.58
2018-03-15T12:41:12.611Z,100551.50
2018-03-15T12:43:41.691Z,100559.50
2018-03-15T12:46:10.075Z,100542.22
2018-03-15T12:48:39.137Z,100543.81
2018-03-15T12:51:07.470Z,100540.23
2018-03-15T12:53:35.962Z,100536.66
2018-03-15T12:56:04.300Z,100537.80
2018-03-15T12:58:32.605Z,100537.36
2018-03-15T13:01:01.733Z,100531.06
2018-03-15T13:03:30.086Z,100534.50
2018-03-15T13:05:58.393Z,100540.70
2018-03-15T13:08:26.765Z,100525.16
2018-03-15T13:10:55.088Z,100544.73
2018-03-15T13:13:23.426Z,100538.06
2018-03-15T13:15:51.968Z,100522.94
2018-03-15T13:18:20.352Z,100525.97
2018-03-15T13:20:49.430Z,100522.94
2018-03-15T13:23:17.803Z,100527.05
2018-03-15T13:25:46.138Z,100517.56
2018-03-15T13:28:14.465Z,100508.72
2018-03-15T13:30:42.810Z,100505.82
2018-03-15T13:33:11.124Z,100493.72
2018-03-15T13:35:39.494Z,100495.58
2018-03-15T13:38:07.976Z,100491.84
2018-03-15T13:40:36.340Z,100492.63
2018-03-15T13:43:04.670Z,100495.37
2018-03-15T13:45:33.009Z,100485.08
2018-03-15T13:48:01.381Z,100490.96
2018-03-15T13:50:29.716Z,100481.25
2018-03-15T13:52:58.084Z,100479.02
2018-03-15T13:55:26.543Z,100474.09
2018-03-15T13:57:55.652Z,100479.95
2018-03-15T14:00:25.688Z,100474.17
2018-03-15T14:02:54.036Z,100474.91
2018-03-15T14:05:23.124Z,100470.41
2018-03-15T14:07:51.455Z,100458.29
2018-03-15T14:10:19.758Z,100456.91
2018-03-15T14:12:48.079Z,100453.73
2018-03-15T14:15:16.426Z,100455.67
2018-03-15T14:17:44.775Z,100459.23
2018-03-15T14:20:13.086Z,100449.30
2018-03-15T14:22:41.601Z,100454.88
2018-03-15T14:25:09.964Z,100448.96
2018-03-15T14:27:39.045Z,100459.59
2018-03-15T14:30:07.394Z,100452.50
2018-03-15T14:32:35.726Z,100448.50
2018-03-15T14:35:04.064Z,100441.66
2018-03-15T14:37:33.186Z,100436.97
2018-03-15T14:40:01.516Z,100434.63
2018-03-15T14:42:29.875Z,100436.31
2018-03-15T14:44:58.458Z,100436.85
2018-03-15T14:47:26.805Z,100443.97
2018-03-15T14:49:55.921Z,100426.16
2018-03-15T14:52:24.261Z,100428.13
2018-03-15T14:54:52.604Z,100436.87
2018-03-15T14:57:20.948Z,100431.68
2018-03-15T14:59:50.099Z,100426.16
2018-03-15T15:02:18.469Z,100431.81
2018-03-15T15:04:46.824Z,100435.05
2018-03-15T15:07:15.515Z,100441.86
2018-03-15T15:09:43.911Z,100448.81
2018-03-15T15:12:12.234Z,100427.02
2018-03-15T15:14:40.636Z,100426.23
2018-03-15T15:17:09.707Z,100426.18
2018-03-15T15:19:38.064Z,100422.17
2018-03-15T15:22:06.408Z,100421.22
2018-03-15T15:24:34.719Z,100422.06
2018-03-15T15:27:03.064Z,100424.50
2018-03-15T15:29:31.485Z,100423.74
2018-03-15T15:31:59.802Z,100429.03
2018-03-15T15:34:28.902Z,100426.22
2018-03-15T15:36:58.019Z,100434.80
2018-03-15T15:39:26.353Z,100433.84
2018-03-15T15:41:55.439Z,100437.05
2018-03-15T15:44:24.572Z,100441.02
2018-03-15T15:46:52.945Z,100441.77
2018-03-15T15:49:22.069Z,100435.11
2018-03-15T15:51:50.493Z,100435.48
2018-03-15T15:54:19.757Z,100439.82
2018-03-15T15:56:48.090Z,100446.92
2018-03-15T15:59:16.477Z,100459.55
2018-03-15T16:01:45.613Z,100449.58
2018-03-15T16:04:14.007Z,100457.58
2018-03-15T16:06:43.086Z,100457.57
2018-03-15T16:09:11.418Z,100470.02
2018-03-15T16:11:39.772Z,100464.22
2018-03-15T16:14:08.698Z,100466.56
2018-03-15T16:16:37.868Z,100464.20
2018-03-15T16:19:06.205Z,100461.52
2018-03-15T16:21:34.650Z,100458.57
2018-03-15T16:24:02.953Z,100462.67
2018-03-15T16:26:31.349Z,100466.78
2018-03-15T16:28:59.755Z,100461.11
2018-03-15T16:31:28.099Z,100460.48
2018-03-15T16:33:56.424Z,100463.58
2018-03-15T16:36:24.880Z,100465.72
2018-03-15T16:38:53.496Z,100468.67
2018-03-15T16:41:21.844Z,100463.73
2018-03-15T16:43:50.215Z,100474.13
2018-03-15T16:46:18.550Z,100469.82
2018-03-15T16:48:47.624Z,100473.00
2018-03-15T16:51:15.969Z,100476.46
2018-03-15T16:53:44.280Z,100484.11
2018-03-15T16:56:12.612Z,100481.13
2018-03-15T16:58:41.280Z,100475.55
2018-03-15T17:01:10.363Z,100463.52
2018-03-15T17:03:38.686Z,100480.64
2018-03-15T17:06:07.061Z,100475.62
2018-03-15T17:08:35.383Z,100479.42
2018-03-15T17:11:03.770Z,100475.19
2018-03-15T17:13:32.980Z,100474.89
2018-03-15T17:16:02.082Z,100483.40
2018-03-15T17:18:30.515Z,100480.14
2018-03-15T17:20:59.005Z,100480.36
2018-03-15T17:23:27.345Z,100481.48
2018-03-15T17:25:55.675Z,100472.48
2018-03-15T17:28:24.798Z,100485.09
2018-03-15T17:30:53.137Z,100482.48
2018-03-15T17:33:21.479Z,100488.91
2018-03-15T17:35:49.846Z,100483.59
2018-03-15T17:38:18.187Z,100475.95
2018-03-15T17:40:46.701Z,100489.13
2018-03-15T17:43:15.379Z,100494.34
2018-03-15T17:45:43.732Z,100476.81
2018-03-15T17:48:12.069Z,100482.05
2018-03-15T17:50:40.418Z,100476.89
2018-03-15T17:53:09.548Z,100487.55
2018-03-15T17:55:37.866Z,100483.31
2018-03-15T17:58:06.432Z,100493.77
2018-03-15T18:00:34.746Z,100494.61
2018-03-15T18:03:03.834Z,100486.69
2018-03-15T18:05:32.281Z,100482.77
2018-03-15T18:08:00.618Z,100483.09
2018-03-15T18:10:28.949Z,100482.62
2018-03-15T18:12:57.326Z,100487.55
2018-03-15T18:15:25.744Z,100475.69
2018-03-15T18:17:54.861Z,100482.67
2018-03-15T18:20:23.227Z,100474.91
2018-03-15T18:22:51.552Z,100480.55
2018-03-15T18:25:19.892Z,100476.45
2018-03-15T18:27:48.304Z,100470.37
2018-03-15T18:30:16.638Z,100470.87
2018-03-15T18:32:45.714Z,100462.86
2018-03-15T18:35:14.062Z,100461.59
2018-03-15T18:37:42.370Z,100464.16
2018-03-15T18:40:10.714Z,100469.67
2018-03-15T18:42:39.185Z,100454.75
2018-03-15T18:45:07.548Z,100466.62
2018-03-15T18:47:35.890Z,100471.35
2018-03-15T18:50:04.447Z,100466.10
2018-03-15T18:52:32.802Z,100456.16
2018-03-15T18:55:01.124Z,100454.73
2018-03-15T18:57:29.481Z,100475.44
2018-03-15T18:59:57.836Z,100471.88
2018-03-15T19:02:26.182Z,100467.04
2018-03-15T19:04:55.332Z,100481.88
2018-03-15T19:07:23.697Z,100483.16
2018-03-15T19:09:52.035Z,100475.64
2018-03-15T19:12:21.500Z,100475.71
2018-03-15T19:14:49.861Z,100472.03
2018-03-15T19:17:18.294Z,100482.91
2018-03-15T19:19:46.694Z,100485.98
2018-03-15T19:22:15.098Z,100483.42
2018-03-15T19:24:43.554Z,100495.34
2018-03-15T19:27:11.917Z,100498.82
2018-03-15T19:29:41.114Z,100504.20
2018-03-15T19:32:10.261Z,100510.74
2018-03-15T19:34:39.530Z,100515.75
2018-03-15T19:37:07.861Z,100510.39
2018-03-15T19:39:36.245Z,100521.76
2018-03-15T19:42:04.595Z,100525.70
2018-03-15T19:44:33.896Z,100517.16
2018-03-15T19:47:02.295Z,100515.80
2018-03-15T19:49:30.707Z,100513.74
2018-03-15T19:51:59.119Z,100507.50
2018-03-15T19:54:27.485Z,100520.73
2018-03-15T19:56:56.668Z,100513.19
2018-03-15T19:59:25.017Z,100516.65
2018-03-15T20:01:53.384Z,100513.98
2018-03-15T20:04:21.755Z,100512.23
2018-03-15T20:06:51.365Z,100516.36
2018-03-15T20:09:20.405Z,100511.48
2018-03-15T20:11:49.565Z,100509.98
2018-03-15T20:14:17.894Z,100510.36
2018-03-15T20:16:46.220Z,100507.70
2018-03-15T20:19:19.628Z,100512.00
2018-03-15T20:21:47.930Z,100517.59
2018-03-15T20:24:21.846Z,100512.31
2018-03-15T20:26:50.196Z,100512.88
2018-03-15T20:29:18.501Z,100521.10
2018-03-15T20:31:47.620Z,100515.50
2018-03-15T20:34:16.030Z,100513.97
2018-03-15T20:36:45.187Z,100528.38
2018-03-15T20:39:20.128Z,100515.33
2018-03-15T20:41:49.200Z,100516.66
2018-03-15T20:44:18.006Z,100515.47
2018-03-15T20:46:52.559Z,100521.52
2018-03-15T20:49:20.886Z,100522.58
2018-03-15T20:51:49.240Z,100518.80
2018-03-15T20:54:17.632Z,100514.48
2018-03-15T20:56:45.970Z,100517.74
2018-03-15T20:59:14.357Z,100515.77
2018-03-15T21:01:42.861Z,100523.77
2018-03-15T21:04:11.252Z,100527.78
2018-03-15T21:06:40.511Z,100525.02
2018-03-15T21:09:08.891Z,100519.19
2018-03-15T21:11:37.240Z,100520.70
2018-03-15T21:14:06.334Z,100528.08
2018-03-15T21:16:35.492Z,100521.59
2018-03-15T21:19:03.831Z,100525.91
2018-03-15T21:21:32.190Z,100519.38
2018-03-15T21:24:01.382Z,100518.03
2018-03-15T21:26:30.505Z,100520.78
2018-03-15T21:28:58.852Z,100511.43
2018-03-15T21:31:27.218Z,100515.87
2018-03-15T21:33:55.546Z,100512.95
2018-03-15T21:36:23.876Z,100511.84
2018-03-15T21:38:52.226Z,100507.87
2018-03-15T21:41:20.581Z,100500.88
2018-03-15T21:43:48.967Z,100506.95
2018-03-15T21:46:17.696Z,100509.06
2018-03-15T21:48:46.051Z,100508.59
2018-03-15T21:51:14.387Z,100513.11
2018-03-15T21:53:43.551Z,100498.14
2018-03-15T21:56:11.869Z,100506.91
2018-03-15T21:58:40.263Z,100500.47
2018-03-15T22:01:08.789Z,100501.61
2018-03-15T22:03:37.151Z,100497.63
2018-03-15T22:06:06.291Z,100506.32
2018-03-15T22:08:34.972Z,100501.22
2018-03-15T22:11:03.362Z,100507.33
2018-03-15T22:13:31.684Z,100498.02
2018-03-15T22:16:00.057Z,100499.45
2018-03-15T22:18:28.403Z,100498.20
2018-03-15T22:20:57.577Z,100506.36
2018-03-15T22:23:25.983Z,100488.47
2018-03-15T22:25:54.304Z,100490.39
2018-03-15T22:28:22.621Z,100496.12
2018-03-15T22:30:51.050Z,100487.16
2018-03-15T22:33:19.415Z,100484.55
2018-03-15T22:35:47.806Z,100488.67
2018-03-15T22:38:16.217Z,100490.40
2018-03-15T22:40:44.573Z,100493.78
2018-03-15T22:43:12.927Z,100489.17
2018-03-15T22:45:41.303Z,100495.09
2018-03-15T22:48:09.691Z,100497.98
2018-03-15T22:50:38.002Z,100495.78
2018-03-15T22:53:06.398Z,100489.94
2018-03-15T22:55:34.718Z,100486.23
2018-03-15T22:58:03.048Z,100485.09
2018-03-15T23:00:31.401Z,100491.41
2018-03-15T23:02:59.752Z,100496.64
2018-03-15T23:05:28.848Z,100494.45
2018-03-15T23:07:57.260Z,100477.78
2018-03-15T23:10:25.635Z,100485.27
2018-03-15T23:12:54.020Z,100474.95
2018-03-15T23:15:22.494Z,100476.53
2018-03-15T23:17:50.798Z,100470.80
2018-03-15T23:20:19.890Z,100473.79
2018-03-15T23:22:49.303Z,100474.95
2018-03-15T23:25:17.657Z,100477.10
2018-03-15T23:27:46.010Z,100484.05
2018-03-15T23:30:14.377Z,100471.55
2018-03-15T23:32:42.713Z,100473.47
2018-03-15T23:35:11.058Z,100471.83
2018-03-15T23:37:39.619Z,100472.84
2018-03-15T23:40:07.940Z,100472.00
2018-03-15T23:42:36.295Z,100466.80
2018-03-15T23:45:04.640Z,100468.01
2018-03-15T23:47:32.984Z,100462.39
2018-03-15T23:50:01.340Z,100457.97
2018-03-15T23:52:29.775Z,100463.39
2018-03-15T23:54:59.658Z,100464.25
2018-03-15T23:57:28.005Z,100466.11
2018-03-15T23:59:56.680Z,100455.23
